Time;durP1;ratioP1;P1;durP2;ratioP2;P2;SDS_P1;SDS_P2;PMS_P1;PMS_P2;Temp;Humidity;BMP_temperature;BMP_pressure;BME280_temperature;BME280_humidity;BME280_pressure;Samples;Min_cycle;Max_cycle;Signal;HPM_P1;HPM_P2
2023/10/29 00:01:51;;;;;;;8.40;4.22;;;;;;;-148.88;100.00;-17125.47;5010684;28;20611;-85
2023/10/29 00:04:16;;;;;;;12.55;4.50;;;;;;;-148.88;100.00;-17125.47;4996253;28;20022;-86
2023/10/29 00:06:41;;;;;;;8.65;3.90;;;;;;;-148.88;100.00;-17125.47;4998346;28;20029;-86
2023/10/29 00:09:07;;;;;;;6.53;3.72;;;;;;;-148.88;100.00;-17125.47;5000778;28;20026;-85
2023/10/29 00:11:32;;;;;;;4.88;3.00;;;;;;;-148.88;100.00;-17125.47;4999415;28;20080;-85
2023/10/29 00:13:59;;;;;;;7.13;3.17;;;;;;;-148.88;100.00;-17125.47;4997874;28;20022;-85
2023/10/29 00:16:25;;;;;;;6.20;3.28;;;;;;;-148.88;100.00;-17125.47;4998014;28;20022;-85
2023/10/29 00:18:50;;;;;;;5.68;3.47;;;;;;;-148.88;100.00;-17125.47;4995756;28;20049;-84
2023/10/29 00:21:16;;;;;;;5.22;3.22;;;;;;;-148.88;100.00;-17125.47;4995202;28;20026;-84
2023/10/29 00:23:41;;;;;;;6.55;3.15;;;;;;;-148.88;100.00;-17125.47;4994101;28;20094;-83
2023/10/29 00:26:06;;;;;;;4.88;2.70;;;;;;;-148.88;100.00;-17125.47;4995183;28;20034;-84
2023/10/29 00:28:32;;;;;;;4.63;2.80;;;;;;;-148.88;100.00;-17125.47;4995420;28;20392;-85
2023/10/29 00:30:57;;;;;;;3.80;2.72;;;;;;;-148.88;100.00;-17125.47;4995267;28;20198;-86
2023/10/29 00:33:24;;;;;;;4.63;2.08;;;;;;;-148.88;100.00;-17125.47;5011620;28;20029;-86
2023/10/29 00:35:49;;;;;;;7.20;3.10;;;;;;;-148.88;100.00;-17125.47;4998750;28;20025;-85
2023/10/29 00:38:15;;;;;;;4.70;2.88;;;;;;;-148.88;100.00;-17125.47;5012888;28;20022;-87
2023/10/29 00:40:40;;;;;;;3.65;2.90;;;;;;;-148.88;100.00;-17125.47;4995650;28;20081;-84
2023/10/29 00:43:05;;;;;;;4.25;2.90;;;;;;;-148.88;100.00;-17125.47;4994802;28;20054;-85
2023/10/29 00:45:32;;;;;;;2.83;1.77;;;;;;;-148.88;100.00;-17125.47;4993514;28;20496;-87
2023/10/29 00:47:58;;;;;;;5.95;3.00;;;;;;;-148.88;100.00;-17125.47;4994201;28;20037;-86
2023/10/29 00:50:26;;;;;;;3.63;2.40;;;;;;;-148.88;100.00;-17125.47;4995226;28;20026;-84
2023/10/29 00:52:52;;;;;;;4.18;3.17;;;;;;;-148.88;100.00;-17125.47;5010875;28;20054;-85
2023/10/29 00:55:18;;;;;;;5.13;2.55;;;;;;;-148.88;100.00;-17125.47;4995082;28;20452;-84
2023/10/29 00:57:44;;;;;;;3.83;2.45;;;;;;;-148.88;100.00;-17125.47;5009783;28;20073;-85
2023/10/29 01:00:10;;;;;;;4.53;2.72;;;;;;;-148.88;100.00;-17125.47;4996589;28;20031;-86
2023/10/29 01:02:36;;;;;;;4.30;2.45;;;;;;;-148.88;100.00;-17125.47;4997782;28;20441;-85
2023/10/29 01:05:05;;;;;;;3.55;2.40;;;;;;;-148.88;100.00;-17125.47;4994571;28;20072;-85
2023/10/29 01:07:32;;;;;;;4.32;2.42;;;;;;;-148.88;100.00;-17125.47;4993392;28;20026;-85
2023/10/29 01:09:59;;;;;;;3.80;2.47;;;;;;;-148.88;100.00;-17125.47;4994319;28;20030;-85
2023/10/29 01:12:27;;;;;;;2.78;2.00;;;;;;;-148.88;100.00;-17125.47;4993231;28;20508;-85
2023/10/29 01:14:52;;;;;;;3.28;2.30;;;;;;;-148.88;100.00;-17125.47;4994606;28;20109;-85
2023/10/29 01:17:20;;;;;;;3.10;2.33;;;;;;;-148.88;100.00;-17125.47;4994489;28;20058;-85
2023/10/29 01:19:45;;;;;;;3.85;2.20;;;;;;;-148.88;100.00;-17125.47;4996505;28;20040;-85
2023/10/29 01:22:11;;;;;;;3.75;2.20;;;;;;;-148.88;100.00;-17125.47;4994897;28;20105;-86
2023/10/29 01:24:36;;;;;;;2.45;1.90;;;;;;;-148.88;100.00;-17125.47;4994444;28;20062;-84
2023/10/29 01:27:03;;;;;;;4.18;2.40;;;;;;;-148.88;100.00;-17125.47;4997751;28;20023;-87
2023/10/29 01:29:29;;;;;;;3.65;2.40;;;;;;;-148.88;100.00;-17125.47;4995599;28;20057;-84
2023/10/29 01:31:54;;;;;;;3.88;2.33;;;;;;;-148.88;100.00;-17125.47;4994693;28;20030;-83
2023/10/29 01:34:20;;;;;;;3.65;2.42;;;;;;;-148.88;100.00;-17125.47;4993030;28;20063;-85
2023/10/29 01:36:45;;;;;;;5.55;2.72;;;;;;;-148.88;100.00;-17125.47;4994701;28;20030;-85
2023/10/29 01:39:10;;;;;;;4.15;2.22;;;;;;;-148.88;100.00;-17125.47;4994149;28;20113;-85
2023/10/29 01:41:36;;;;;;;5.00;2.63;;;;;;;-148.88;100.00;-17125.47;4992986;28;20023;-84
2023/10/29 01:44:02;;;;;;;3.63;2.30;;;;;;;-148.88;100.00;-17125.47;4994309;28;20118;-84
2023/10/29 01:46:27;;;;;;;4.05;2.60;;;;;;;-148.88;100.00;-17125.47;5012043;28;20529;-85
2023/10/29 01:48:56;;;;;;;4.60;2.03;;;;;;;-148.88;100.00;-17125.47;4996880;28;20018;-84
2023/10/29 01:51:21;;;;;;;3.42;2.33;;;;;;;-148.88;100.00;-17125.47;4996875;28;20023;-84
2023/10/29 01:53:47;;;;;;;3.67;2.05;;;;;;;-148.88;100.00;-17125.47;5001304;28;20362;-85
2023/10/29 01:56:12;;;;;;;4.22;2.08;;;;;;;-148.88;100.00;-17125.47;5001190;28;20025;-86
2023/10/29 01:58:38;;;;;;;3.53;1.83;;;;;;;-148.88;100.00;-17125.47;4999138;28;20535;-85
2023/10/29 02:01:11;;;;;;;4.15;1.90;;;;;;;-148.88;100.00;-17125.47;5015813;28;20124;-85
2023/10/29 02:03:36;;;;;;;3.22;1.90;;;;;;;-148.88;100.00;-17125.47;4999691;28;20030;-85
2023/10/29 02:06:02;;;;;;;3.17;2.00;;;;;;;-148.88;100.00;-17125.47;4996604;28;20158;-83
2023/10/29 02:08:27;;;;;;;3.13;2.10;;;;;;;-148.88;100.00;-17125.47;4998129;28;20030;-85
2023/10/29 02:10:53;;;;;;;3.08;1.77;;;;;;;-148.88;100.00;-17125.47;4997253;28;20548;-84
2023/10/29 02:13:18;;;;;;;2.63;1.92;;;;;;;-148.88;100.00;-17125.47;4997356;28;20022;-83
2023/10/29 02:15:44;;;;;;;3.83;1.90;;;;;;;-148.88;100.00;-17125.47;4997158;28;20018;-84
2023/10/29 02:18:11;;;;;;;5.32;1.90;;;;;;;-148.88;100.00;-17125.47;4995976;28;20026;-84
2023/10/29 02:20:37;;;;;;;3.05;1.88;;;;;;;-148.88;100.00;-17125.47;5016742;28;20053;-85
2023/10/29 02:23:02;;;;;;;2.60;1.67;;;;;;;-148.88;100.00;-17125.47;5001410;28;20054;-86
2023/10/29 02:25:28;;;;;;;3.40;1.70;;;;;;;-148.88;100.00;-17125.47;4999007;28;20041;-85
2023/10/29 02:27:53;;;;;;;3.33;1.50;;;;;;;-148.88;100.00;-17125.47;4999769;28;20478;-83
2023/10/29 02:30:19;;;;;;;2.45;1.60;;;;;;;-148.88;100.00;-17125.47;4996576;28;20034;-84
2023/10/29 02:32:49;;;;;;;3.55;1.50;;;;;;;-148.88;100.00;-17125.47;4996249;28;20036;-85
2023/10/29 02:35:15;;;;;;;2.63;1.70;;;;;;;-148.88;100.00;-17125.47;4995718;28;20541;-83
2023/10/29 02:37:40;;;;;;;2.38;1.50;;;;;;;-148.88;100.00;-17125.47;5012991;28;20026;-83
2023/10/29 02:40:06;;;;;;;3.03;1.73;;;;;;;-148.88;100.00;-17125.47;5012789;28;20023;-82
2023/10/29 02:42:31;;;;;;;4.35;1.70;;;;;;;-148.88;100.00;-17125.47;5011925;28;20473;-84
2023/10/29 02:44:58;;;;;;;2.65;1.52;;;;;;;-148.88;100.00;-17125.47;4995330;28;20072;-85
2023/10/29 02:47:24;;;;;;;3.35;1.50;;;;;;;-148.88;100.00;-17125.47;4999663;28;20018;-86
2023/10/29 02:49:49;;;;;;;2.95;1.60;;;;;;;-148.88;100.00;-17125.47;5000713;28;20030;-84
2023/10/29 02:52:18;;;;;;;4.63;1.80;;;;;;;-148.88;100.00;-17125.47;4998674;28;20033;-84
2023/10/29 02:54:43;;;;;;;2.55;1.40;;;;;;;-148.88;100.00;-17125.47;4995960;28;20385;-85
2023/10/29 02:57:09;;;;;;;5.10;1.60;;;;;;;-148.88;100.00;-17125.47;5011419;28;20473;-85
2023/10/29 02:59:34;;;;;;;2.50;1.35;;;;;;;-148.88;100.00;-17125.47;4996579;28;20485;-84
2023/10/29 03:01:59;;;;;;;2.63;1.30;;;;;;;-148.88;100.00;-17125.47;4995115;28;20113;-84
2023/10/29 03:04:24;;;;;;;3.47;1.45;;;;;;;-148.88;100.00;-17125.47;4996251;28;20030;-84
2023/10/29 03:06:50;;;;;;;4.60;1.60;;;;;;;-148.88;100.00;-17125.47;4995053;28;20018;-84
2023/10/29 03:09:15;;;;;;;3.15;1.60;;;;;;;-148.88;100.00;-17125.47;5011375;28;20077;-85
2023/10/29 03:11:41;;;;;;;3.40;1.40;;;;;;;-148.88;100.00;-17125.47;5011811;28;20166;-85
2023/10/29 03:14:06;;;;;;;3.08;1.30;;;;;;;-148.88;100.00;-17125.47;4997728;28;20030;-83
2023/10/29 03:16:32;;;;;;;3.15;1.35;;;;;;;-148.88;100.00;-17125.47;5011918;28;20029;-83
2023/10/29 03:18:57;;;;;;;5.50;1.40;;;;;;;-148.88;100.00;-17125.47;4996264;28;20029;-84
2023/10/29 03:21:22;;;;;;;2.40;1.30;;;;;;;-148.88;100.00;-17125.47;4994650;28;20444;-84
2023/10/29 03:23:48;;;;;;;2.20;1.20;;;;;;;-148.88;100.00;-17125.47;5011151;28;20526;-84
2023/10/29 03:26:13;;;;;;;3.80;1.10;;;;;;;-148.88;100.00;-17125.47;4995955;28;20401;-84
2023/10/29 03:28:41;;;;;;;6.43;1.50;;;;;;;-148.88;100.00;-17125.47;4996049;28;20026;-84
2023/10/29 03:31:11;;;;;;;5.35;1.50;;;;;;;-148.88;100.00;-17125.47;5011122;28;20019;-83
2023/10/29 03:33:39;;;;;;;2.83;1.20;;;;;;;-148.88;100.00;-17125.47;4996240;28;20028;-84
2023/10/29 03:36:05;;;;;;;6.05;1.33;;;;;;;-148.88;100.00;-17125.47;4994509;28;20461;-86
2023/10/29 03:38:30;;;;;;;4.88;1.30;;;;;;;-148.88;100.00;-17125.47;4994854;28;20030;-82
2023/10/29 03:40:55;;;;;;;1.98;1.13;;;;;;;-148.88;100.00;-17125.47;4997290;28;20029;-83
2023/10/29 03:43:21;;;;;;;2.25;0.98;;;;;;;-148.88;100.00;-17125.47;4998465;28;20019;-84
2023/10/29 03:45:46;;;;;;;2.55;1.20;;;;;;;-148.88;100.00;-17125.47;4997333;28;20181;-83
2023/10/29 03:48:15;;;;;;;2.63;1.10;;;;;;;-148.88;100.00;-17125.47;4998427;28;20394;-85
2023/10/29 03:50:41;;;;;;;4.60;1.30;;;;;;;-148.88;100.00;-17125.47;4995864;28;20432;-83
2023/10/29 03:53:07;;;;;;;2.25;1.10;;;;;;;-148.88;100.00;-17125.47;4995277;28;20026;-84
2023/10/29 03:55:32;;;;;;;3.63;1.38;;;;;;;-148.88;100.00;-17125.47;4993968;28;20030;-83
2023/10/29 03:57:57;;;;;;;3.13;1.20;;;;;;;-148.88;100.00;-17125.47;4994077;28;20469;-84
2023/10/29 04:00:23;;;;;;;3.45;1.48;;;;;;;-148.88;100.00;-17125.47;4994314;28;20037;-82
2023/10/29 04:02:48;;;;;;;4.07;1.17;;;;;;;-148.88;100.00;-17125.47;4994073;28;20042;-83
2023/10/29 04:05:14;;;;;;;3.28;1.13;;;;;;;-148.88;100.00;-17125.47;4994978;28;20030;-82
2023/10/29 04:07:40;;;;;;;5.65;1.10;;;;;;;-148.88;100.00;-17125.47;4995312;28;20022;-86
2023/10/29 04:10:06;;;;;;;6.15;1.20;;;;;;;-148.88;100.00;-17125.47;4999450;28;20034;-83
2023/10/29 04:12:32;;;;;;;2.90;1.23;;;;;;;-148.88;100.00;-17125.47;4997319;28;20022;-84
2023/10/29 04:15:00;;;;;;;3.38;1.38;;;;;;;-148.88;100.00;-17125.47;4997746;28;20544;-85
2023/10/29 04:17:25;;;;;;;3.42;1.10;;;;;;;-148.88;100.00;-17125.47;4997084;28;20157;-82
2023/10/29 04:19:51;;;;;;;2.13;0.93;;;;;;;-148.88;100.00;-17125.47;4994441;28;20053;-83
2023/10/29 04:22:17;;;;;;;2.22;1.13;;;;;;;-148.88;100.00;-17125.47;4995306;28;20034;-83
2023/10/29 04:24:43;;;;;;;2.13;1.05;;;;;;;-148.88;100.00;-17125.47;4995912;28;20030;-81
2023/10/29 04:27:08;;;;;;;1.75;0.85;;;;;;;-148.88;100.00;-17125.47;4994979;28;20033;-83
2023/10/29 04:29:33;;;;;;;1.95;1.00;;;;;;;-148.88;100.00;-17125.47;4995643;28;20073;-83
2023/10/29 04:32:02;;;;;;;3.53;1.05;;;;;;;-148.88;100.00;-17125.47;4995209;28;20511;-82
2023/10/29 04:34:27;;;;;;;2.70;1.20;;;;;;;-148.88;100.00;-17125.47;4995122;28;20067;-84
2023/10/29 04:36:53;;;;;;;2.85;1.10;;;;;;;-148.88;100.00;-17125.47;5000419;28;20101;-85
2023/10/29 04:39:19;;;;;;;2.45;1.20;;;;;;;-148.88;100.00;-17125.47;5013868;28;20065;-82
2023/10/29 04:41:47;;;;;;;4.13;1.20;;;;;;;-148.88;100.00;-17125.47;4994992;28;20022;-82
2023/10/29 04:44:13;;;;;;;4.32;1.20;;;;;;;-148.88;100.00;-17125.47;4994936;28;20032;-84
2023/10/29 04:46:39;;;;;;;4.63;1.15;;;;;;;-148.88;100.00;-17125.47;4995238;28;20093;-82
2023/10/29 04:49:07;;;;;;;2.20;0.90;;;;;;;-148.88;100.00;-17125.47;4993417;28;20033;-83
2023/10/29 04:51:33;;;;;;;2.00;1.00;;;;;;;-148.88;100.00;-17125.47;4994881;28;20026;-84
2023/10/29 04:53:59;;;;;;;3.13;1.10;;;;;;;-148.88;100.00;-17125.47;4994745;28;20030;-82
2023/10/29 04:56:25;;;;;;;2.90;1.02;;;;;;;-148.88;100.00;-17125.47;4995377;28;20485;-82
2023/10/29 04:58:50;;;;;;;3.08;0.80;;;;;;;-148.88;100.00;-17125.47;4993621;28;20056;-83
2023/10/29 05:01:17;;;;;;;2.47;1.00;;;;;;;-148.88;100.00;-17125.47;4996175;28;20104;-84
2023/10/29 05:03:46;;;;;;;2.95;1.20;;;;;;;-148.88;100.00;-17125.47;4993890;28;20049;-81
2023/10/29 05:06:19;;;;;;;2.25;1.00;;;;;;;-148.88;100.00;-17125.47;4994842;28;20500;-81
2023/10/29 05:08:44;;;;;;;2.58;1.00;;;;;;;-148.88;100.00;-17125.47;4994690;28;20025;-81
2023/10/29 05:11:10;;;;;;;4.35;1.08;;;;;;;-148.88;100.00;-17125.47;4994887;28;20034;-83
2023/10/29 05:13:36;;;;;;;2.85;1.00;;;;;;;-148.88;100.00;-17125.47;4993241;28;20505;-82
2023/10/29 05:16:02;;;;;;;5.47;1.20;;;;;;;-148.88;100.00;-17125.47;4994519;28;20026;-82
2023/10/29 05:18:28;;;;;;;3.58;0.95;;;;;;;-148.88;100.00;-17125.47;4994602;28;20026;-83
2023/10/29 05:20:53;;;;;;;3.20;0.82;;;;;;;-148.88;100.00;-17125.47;4997643;28;20034;-82
2023/10/29 05:23:18;;;;;;;4.30;1.00;;;;;;;-148.88;100.00;-17125.47;5013592;28;20477;-80
2023/10/29 05:25:44;;;;;;;3.92;1.00;;;;;;;-148.88;100.00;-17125.47;4997058;28;20409;-82
2023/10/29 05:28:10;;;;;;;2.80;0.90;;;;;;;-148.88;100.00;-17125.47;4998325;28;20057;-81
2023/10/29 05:30:35;;;;;;;3.55;1.00;;;;;;;-148.88;100.00;-17125.47;5002278;28;20117;-82
2023/10/29 05:33:01;;;;;;;2.22;0.85;;;;;;;-148.88;100.00;-17125.47;5017984;28;20067;-84
2023/10/29 05:35:26;;;;;;;2.47;1.00;;;;;;;-148.88;100.00;-17125.47;5013358;22;20046;-72
2023/10/29 05:37:51;;;;;;;2.30;1.02;;;;;;;-148.88;100.00;-17125.47;5016208;28;20510;-72
2023/10/29 05:40:17;;;;;;;1.52;0.88;;;;;;;-148.88;100.00;-17125.47;5007362;28;20548;-71
2023/10/29 05:42:42;;;;;;;2.80;1.10;;;;;;;-148.88;100.00;-17125.47;5014892;28;20026;-72
2023/10/29 05:45:08;;;;;;;2.90;0.90;;;;;;;-148.88;100.00;-17125.47;5016066;28;20022;-72
2023/10/29 05:47:33;;;;;;;6.00;1.05;;;;;;;-148.88;100.00;-17125.47;5016059;28;20030;-72
2023/10/29 05:49:59;;;;;;;4.63;1.30;;;;;;;-148.88;100.00;-17125.47;5015921;28;20105;-71
2023/10/29 05:52:25;;;;;;;3.90;1.10;;;;;;;-148.88;100.00;-17125.47;5014667;28;20032;-70
2023/10/29 05:54:50;;;;;;;1.65;0.98;;;;;;;-148.88;100.00;-17125.47;5016157;28;20022;-70
2023/10/29 05:57:16;;;;;;;3.85;1.10;;;;;;;-148.88;100.00;-17125.47;5015883;28;20033;-71
2023/10/29 05:59:42;;;;;;;2.88;1.15;;;;;;;-148.88;100.00;-17125.47;5016082;28;20033;-70
2023/10/29 06:02:09;;;;;;;2.35;0.82;;;;;;;-148.88;100.00;-17125.47;5015817;28;20025;-71
2023/10/29 06:04:35;;;;;;;2.60;1.02;;;;;;;-148.88;100.00;-17125.47;5014303;28;20030;-72
2023/10/29 06:07:00;;;;;;;3.75;1.02;;;;;;;-148.88;100.00;-17125.47;5015742;28;20025;-72
2023/10/29 06:09:25;;;;;;;4.03;1.20;;;;;;;-148.88;100.00;-17125.47;5014287;28;20060;-71
2023/10/29 06:11:52;;;;;;;2.92;1.10;;;;;;;-148.88;100.00;-17125.47;5015894;28;20030;-72
2023/10/29 06:14:18;;;;;;;3.10;1.08;;;;;;;-148.88;100.00;-17125.47;5015583;28;20028;-72
2023/10/29 06:16:43;;;;;;;1.65;0.82;;;;;;;-148.88;100.00;-17125.47;5015724;28;20018;-72
2023/10/29 06:19:09;;;;;;;1.75;0.77;;;;;;;-148.88;100.00;-17125.47;5015388;28;20099;-71
2023/10/29 06:21:37;;;;;;;3.88;1.10;;;;;;;-148.88;100.00;-17125.47;5015424;28;20116;-71
2023/10/29 06:24:03;;;;;;;2.72;1.00;;;;;;;-148.88;100.00;-17125.47;5015388;28;20404;-71
2023/10/29 06:26:28;;;;;;;1.67;0.90;;;;;;;-148.88;100.00;-17125.47;5015536;28;20473;-71
2023/10/29 06:28:53;;;;;;;2.90;0.93;;;;;;;-148.88;100.00;-17125.47;5015170;28;20065;-71
2023/10/29 06:31:26;;;;;;;2.50;1.00;;;;;;;-148.88;100.00;-17125.47;5013563;28;20037;-71
2023/10/29 06:33:51;;;;;;;3.00;1.10;;;;;;;-148.88;100.00;-17125.47;5015232;28;20083;-71
2023/10/29 06:36:17;;;;;;;3.90;1.23;;;;;;;-148.88;100.00;-17125.47;5013653;28;20026;-71
2023/10/29 06:38:42;;;;;;;1.80;1.00;;;;;;;-148.88;100.00;-17125.47;5015375;28;20026;-71
2023/10/29 06:41:08;;;;;;;4.63;1.50;;;;;;;-148.88;100.00;-17125.47;5014991;28;20026;-71
2023/10/29 06:43:34;;;;;;;4.25;1.40;;;;;;;-148.88;100.00;-17125.47;5015273;28;20026;-71
2023/10/29 06:46:00;;;;;;;2.53;1.10;;;;;;;-148.88;100.00;-17125.47;5014896;28;20018;-70
2023/10/29 06:48:25;;;;;;;3.78;1.05;;;;;;;-148.88;100.00;-17125.47;5015190;28;20026;-71
2023/10/29 06:50:50;;;;;;;3.15;0.85;;;;;;;-148.88;100.00;-17125.47;5014785;28;20064;-70
2023/10/29 06:53:16;;;;;;;2.70;1.20;;;;;;;-148.88;100.00;-17125.47;5013499;28;20033;-71
2023/10/29 06:55:42;;;;;;;2.47;0.93;;;;;;;-148.88;100.00;-17125.47;5014988;28;20018;-71
2023/10/29 06:58:07;;;;;;;2.22;0.90;;;;;;;-148.88;100.00;-17125.47;5014728;28;20477;-71
2023/10/29 07:00:33;;;;;;;4.50;1.20;;;;;;;-148.88;100.00;-17125.47;5014630;28;20026;-71
2023/10/29 07:02:59;;;;;;;2.45;0.90;;;;;;;-148.88;100.00;-17125.47;5013369;28;20495;-71
2023/10/29 07:05:25;;;;;;;3.10;0.90;;;;;;;-148.88;100.00;-17125.47;5013534;28;20026;-70
2023/10/29 07:07:51;;;;;;;2.35;0.75;;;;;;;-148.88;100.00;-17125.47;5014608;28;20026;-71
2023/10/29 07:10:16;;;;;;;2.60;0.90;;;;;;;-148.88;100.00;-17125.47;5013438;28;20084;-71
2023/10/29 07:12:42;;;;;;;5.95;1.27;;;;;;;-148.88;100.00;-17125.47;5014654;28;20469;-70
2023/10/29 07:15:09;;;;;;;2.88;1.02;;;;;;;-148.88;100.00;-17125.47;5014395;28;20117;-70
2023/10/29 07:17:35;;;;;;;2.83;1.20;;;;;;;-148.88;100.00;-17125.47;5014398;28;20100;-70
2023/10/29 07:20:04;;;;;;;4.25;1.17;;;;;;;-148.88;100.00;-17125.47;5014229;28;20561;-71
2023/10/29 07:22:30;;;;;;;2.05;1.00;;;;;;;-148.88;100.00;-17125.47;5013420;28;20038;-70
2023/10/29 07:24:56;;;;;;;3.15;1.00;;;;;;;-148.88;100.00;-17125.47;5012914;28;20017;-71
2023/10/29 07:27:21;;;;;;;3.33;1.10;;;;;;;-148.88;100.00;-17125.47;5014451;28;20057;-71
2023/10/29 07:29:47;;;;;;;2.42;1.17;;;;;;;-148.88;100.00;-17125.47;5014079;28;20445;-71
2023/10/29 07:32:12;;;;;;;3.10;0.93;;;;;;;-148.88;100.00;-17125.47;5014177;28;20080;-71
2023/10/29 07:34:38;;;;;;;2.60;0.98;;;;;;;-148.88;100.00;-17125.47;5012713;28;20029;-71
2023/10/29 07:37:04;;;;;;;4.97;1.10;;;;;;;-148.88;100.00;-17125.47;5012589;28;20057;-71
2023/10/29 07:39:30;;;;;;;4.70;1.10;;;;;;;-148.88;100.00;-17125.47;5012610;28;20071;-71
2023/10/29 07:41:56;;;;;;;5.22;1.10;;;;;;;-148.88;100.00;-17125.47;5013889;28;20056;-71
2023/10/29 07:44:23;;;;;;;3.33;0.85;;;;;;;-148.88;100.00;-17125.47;5012464;28;20057;-70
2023/10/29 07:46:49;;;;;;;5.03;0.90;;;;;;;-148.88;100.00;-17125.47;5013821;28;20461;-70
2023/10/29 07:49:14;;;;;;;5.40;1.20;;;;;;;-148.88;100.00;-17125.47;5013748;28;20037;-71
2023/10/29 07:51:40;;;;;;;3.70;0.88;;;;;;;-148.88;100.00;-17125.47;5012490;28;20033;-70
2023/10/29 07:54:05;;;;;;;3.15;1.05;;;;;;;-148.88;100.00;-17125.47;5012461;28;20456;-70
2023/10/29 07:56:31;;;;;;;3.30;0.80;;;;;;;-148.88;100.00;-17125.47;5013956;28;20101;-71
2023/10/29 07:58:58;;;;;;;2.95;0.93;;;;;;;-148.88;100.00;-17125.47;5013541;28;20034;-71
2023/10/29 08:01:24;;;;;;;3.58;1.38;;;;;;;-148.88;100.00;-17125.47;5013538;28;20025;-71
2023/10/29 08:03:50;;;;;;;4.10;1.10;;;;;;;-148.88;100.00;-17125.47;5013624;28;20022;-70
2023/10/29 08:06:15;;;;;;;3.83;0.90;;;;;;;-148.88;100.00;-17125.47;5022374;23;20057;-85
2023/10/29 08:08:41;;;;;;;4.63;1.10;;;;;;;-148.88;100.00;-17125.47;5000290;28;20081;-85
2023/10/29 08:11:06;;;;;;;2.20;0.77;;;;;;;-148.88;100.00;-17125.47;5018880;28;20029;-82
2023/10/29 08:13:32;;;;;;;1.70;0.77;;;;;;;-148.88;100.00;-17125.47;4999104;28;20135;-83
2023/10/29 08:15:58;;;;;;;3.10;0.90;;;;;;;-148.88;100.00;-17125.47;5015291;28;20025;-84
2023/10/29 08:18:24;;;;;;;3.75;1.00;;;;;;;-148.88;100.00;-17125.47;5014162;28;20543;-83
2023/10/29 08:20:49;;;;;;;3.25;0.80;;;;;;;-148.88;100.00;-17125.47;5015071;28;20025;-81
2023/10/29 08:23:15;;;;;;;3.35;0.90;;;;;;;-148.88;100.00;-17125.47;5015539;28;20078;-83
2023/10/29 08:25:43;;;;;;;2.25;0.90;;;;;;;-148.88;100.00;-17125.47;5015447;28;20068;-88
2023/10/29 08:28:09;;;;;;;3.97;0.90;;;;;;;-148.88;100.00;-17125.47;5015509;28;20026;-84
2023/10/29 08:30:35;;;;;;;3.15;1.15;;;;;;;-148.88;100.00;-17125.47;5015455;28;20056;-85
2023/10/29 08:33:00;;;;;;;1.95;0.82;;;;;;;-148.88;100.00;-17125.47;5016425;28;20026;-85
2023/10/29 08:35:25;;;;;;;4.70;1.00;;;;;;;-148.88;100.00;-17125.47;5015375;28;20022;-84
2023/10/29 08:37:51;;;;;;;1.65;0.70;;;;;;;-148.88;100.00;-17125.47;5014942;28;20030;-84
2023/10/29 08:40:28;;;;;;;4.38;0.80;;;;;;;-148.88;100.00;-17125.47;5014645;28;20030;-83
2023/10/29 08:42:54;;;;;;;3.03;0.93;;;;;;;-148.88;100.00;-17125.47;5015318;28;20030;-84
2023/10/29 08:45:20;;;;;;;4.68;1.02;;;;;;;-148.88;100.00;-17125.47;5013485;28;20110;-84
2023/10/29 08:47:45;;;;;;;3.72;1.05;;;;;;;-148.88;100.00;-17125.47;5014008;28;20065;-83
2023/10/29 08:50:11;;;;;;;2.95;1.30;;;;;;;-148.88;100.00;-17125.47;5013803;28;20366;-83
2023/10/29 08:52:37;;;;;;;4.50;1.15;;;;;;;-148.88;100.00;-17125.47;5026678;28;20025;-83
2023/10/29 08:55:03;;;;;;;2.53;1.20;;;;;;;-148.88;100.00;-17125.47;5021907;28;20025;-82
2023/10/29 08:57:29;;;;;;;4.45;1.75;;;;;;;-148.88;100.00;-17125.47;5014597;28;20029;-84
2023/10/29 08:59:54;;;;;;;3.72;1.30;;;;;;;-148.88;100.00;-17125.47;5017000;28;20057;-83
2023/10/29 09:02:20;;;;;;;5.75;2.72;;;;;;;-148.88;100.00;-17125.47;5014978;28;20025;-84
2023/10/29 09:04:57;;;;;;;4.18;1.30;;;;;;;-148.88;100.00;-17125.47;5013745;28;20036;-85
2023/10/29 09:07:24;;;;;;;4.88;2.00;;;;;;;-148.88;100.00;-17125.47;5012931;28;20053;-83
2023/10/29 09:10:08;;;;;;;5.07;1.83;;;;;;;-148.88;100.00;-17125.47;5013595;28;20025;-81
2023/10/29 09:12:39;;;;;;;;;;;;;;;-148.88;100.00;-17125.47;5028284;28;20567;-83
2023/10/29 09:15:06;;;;;;;7.35;2.30;;;;;;;-148.88;100.00;-17125.47;5032959;28;19909;-82
2023/10/29 09:17:41;;;;;;;5.20;2.05;;;;;;;-148.88;100.00;-17125.47;5033084;28;20026;-82
2023/10/29 09:20:08;;;;;;;5.05;1.50;;;;;;;-148.88;100.00;-17125.47;5032548;28;20021;-83
2023/10/29 09:22:55;;;;;;;4.80;1.92;;;;;;;-148.88;100.00;-17125.47;5032943;28;20124;-83
2023/10/29 09:25:47;;;;;;;4.75;1.20;;;;;;;-148.88;100.00;-17125.47;5035463;28;20033;-85
2023/10/29 09:28:16;;;;;;;3.90;1.35;;;;;;;-148.88;100.00;-17125.47;5035433;28;20033;-84
2023/10/29 09:30:42;;;;;;;3.97;1.00;;;;;;;-148.88;100.00;-17125.47;5034243;28;20028;-84
2023/10/29 09:33:12;;;;;;;4.47;1.50;;;;;;;-148.88;100.00;-17125.47;5034908;28;20071;-85
2023/10/29 09:35:58;;;;;;;2.10;0.90;;;;;;;-148.88;100.00;-17125.47;5034249;28;20017;-83
2023/10/29 09:38:23;;;;;;;3.08;0.95;;;;;;;-148.88;100.00;-17125.47;5033100;28;20026;-83
2023/10/29 09:41:08;;;;;;;3.42;0.93;;;;;;;-148.88;100.00;-17125.47;5032941;28;20029;-84
2023/10/29 09:43:42;;;;;;;3.05;1.00;;;;;;;-148.88;100.00;-17125.47;5032584;28;20056;-86
2023/10/29 09:46:12;;;;;;;4.18;1.10;;;;;;;-148.88;100.00;-17125.47;5033497;28;20028;-83
2023/10/29 09:48:38;;;;;;;4.55;0.95;;;;;;;-148.88;100.00;-17125.47;5033610;28;20079;-85
2023/10/29 09:51:20;;;;;;;4.05;1.20;;;;;;;-148.88;100.00;-17125.47;5035865;28;20440;-85
2023/10/29 09:53:46;;;;;;;4.05;1.15;;;;;;;-148.88;100.00;-17125.47;5036826;28;20160;-84
2023/10/29 09:56:12;;;;;;;4.70;0.98;;;;;;;-148.88;100.00;-17125.47;5034751;28;20024;-83
2023/10/29 09:58:38;;;;;;;4.45;0.90;;;;;;;-148.88;100.00;-17125.47;5015063;28;20451;-82
2023/10/29 10:01:05;;;;;;;5.80;1.40;;;;;;;-148.88;100.00;-17125.47;5014089;28;20021;-83
2023/10/29 10:03:30;;;;;;;2.65;0.82;;;;;;;-148.88;100.00;-17125.47;5012748;28;20381;-84
2023/10/29 10:06:15;;;;;;;3.03;0.93;;;;;;;-148.88;100.00;-17125.47;5012857;28;20532;-84
2023/10/29 10:08:40;;;;;;;5.28;1.67;;;;;;;-148.88;100.00;-17125.47;5016371;28;20539;-85
2023/10/29 10:11:21;;;;;;;6.15;4.93;;;;;;;-148.88;100.00;-17125.47;5017549;28;20030;-84
2023/10/29 10:13:46;;;;;;;9.10;5.80;;;;;;;-148.88;100.00;-17125.47;5017942;28;20030;-83
2023/10/29 10:16:14;;;;;;;2.15;1.10;;;;;;;-148.88;100.00;-17125.47;5017750;28;20481;-81
2023/10/29 10:19:02;;;;;;;3.17;0.98;;;;;;;-148.88;100.00;-17125.47;5017181;28;20021;-82
2023/10/29 10:21:41;;;;;;;2.70;1.08;;;;;;;-148.88;100.00;-17125.47;5017401;28;20033;-82
2023/10/29 10:24:10;;;;;;;3.58;1.00;;;;;;;-148.88;100.00;-17125.47;5015916;28;20508;-81
2023/10/29 10:26:52;;;;;;;3.60;0.90;;;;;;;-148.88;100.00;-17125.47;5018104;28;20025;-83
2023/10/29 10:29:17;;;;;;;4.13;0.98;;;;;;;-148.88;99.12;-17125.47;5016481;28;20033;-85
2023/10/29 10:31:43;;;;;;;3.15;1.20;;;;;;;-148.88;99.61;-17125.47;5016401;28;20029;-83
2023/10/29 10:34:18;;;;;;;4.32;0.90;;;;;;;-148.88;100.00;-17125.47;5015895;28;20532;-83
2023/10/29 10:36:45;;;;;;;2.80;0.95;;;;;;;-148.88;100.00;-17125.47;5016293;28;20468;-84
2023/10/29 10:39:11;;;;;;;3.85;1.05;;;;;;;-148.88;98.37;-17125.47;5016286;28;20108;-83
2023/10/29 10:41:45;;;;;;;4.85;0.73;;;;;;;-148.88;100.00;-17125.47;5017452;28;20030;-84
2023/10/29 10:44:17;;;;;;;;;;;;;;;-148.88;100.00;-17125.47;5019907;28;20017;-85
2023/10/29 10:46:54;;;;;;;4.03;1.00;;;;;;;-148.88;98.77;-17125.47;5018713;28;19917;-84
2023/10/29 10:49:31;;;;;;;3.05;0.77;;;;;;;-148.88;100.00;-17125.47;5018907;28;20084;-85
2023/10/29 10:51:58;;;;;;;3.35;0.80;;;;;;;-148.88;98.59;-17125.47;5016537;28;20113;-84
2023/10/29 10:54:27;;;;;;;3.33;0.80;;;;;;;-148.88;99.86;-17125.47;5016598;28;20033;-81
2023/10/29 10:56:55;;;;;;;3.17;0.80;;;;;;;-148.88;98.63;-17125.47;5015785;28;20025;-82
2023/10/29 10:59:21;;;;;;;5.40;1.08;;;;;;;-148.88;99.22;-17125.47;5015434;28;20053;-83
2023/10/29 11:02:25;;;;;;;2.38;0.80;;;;;;;-148.88;97.92;-17125.47;5016477;28;20041;-84